createdAt,value
2018-12-12T00:00:58.130Z,1018.78
2018-12-12T00:02:06.792Z,1018.79
2018-12-12T00:03:15.465Z,1018.76
2018-12-12T00:04:24.128Z,1018.74
2018-12-12T00:05:32.808Z,1018.73
2018-12-12T00:06:41.481Z,1018.75
2018-12-12T00:07:50.157Z,1018.7
2018-12-12T00:08:58.829Z,1018.73
2018-12-12T00:10:07.502Z,1018.73
2018-12-12T00:11:16.173Z,1018.78
2018-12-12T00:12:24.848Z,1018.76
2018-12-12T00:13:33.521Z,1018.76
2018-12-12T00:14:42.187Z,1018.77
2018-12-12T00:15:50.856Z,1018.72
2018-12-12T00:16:59.520Z,1018.71
2018-12-12T00:18:08.187Z,1018.67
2018-12-12T00:19:16.860Z,1018.68
2018-12-12T00:20:25.544Z,1018.66
2018-12-12T00:21:34.204Z,1018.68
2018-12-12T00:22:42.873Z,1018.67
2018-12-12T00:23:51.540Z,1018.67
2018-12-12T00:25:00.211Z,1018.72
2018-12-12T00:26:09.138Z,1018.73
2018-12-12T00:27:17.809Z,1018.71
2018-12-12T00:28:26.472Z,1018.73
2018-12-12T00:29:35.171Z,1018.73
2018-12-12T00:30:43.836Z,1018.72
2018-12-12T00:31:52.507Z,1018.7
2018-12-12T00:33:01.171Z,1018.74
2018-12-12T00:34:09.847Z,1018.79
2018-12-12T00:35:18.518Z,1018.83
2018-12-12T00:36:27.183Z,1018.86
2018-12-12T00:37:35.850Z,1018.91
2018-12-12T00:38:44.514Z,1018.89
2018-12-12T00:39:53.185Z,1018.9
2018-12-12T00:41:01.888Z,1018.87
2018-12-12T00:42:10.551Z,1018.85
2018-12-12T00:43:20.180Z,1018.86
2018-12-12T00:44:28.857Z,1018.87
2018-12-12T00:45:37.530Z,1018.87
2018-12-12T00:46:46.202Z,1018.88
2018-12-12T00:47:54.865Z,1018.88
2018-12-12T00:49:03.542Z,1018.85
2018-12-12T00:50:12.207Z,1018.83
2018-12-12T00:51:20.874Z,1018.82
2018-12-12T00:52:29.547Z,1018.83
2018-12-12T00:53:38.211Z,1018.86
2018-12-12T00:54:46.882Z,1018.82
2018-12-12T00:55:55.545Z,1018.8
2018-12-12T00:57:04.222Z,1018.8
2018-12-12T00:58:12.887Z,1018.78
2018-12-12T00:59:21.557Z,1018.81
2018-12-12T01:00:30.225Z,1018.87
2018-12-12T01:01:38.896Z,1018.84
2018-12-12T01:02:47.562Z,1018.84
2018-12-12T01:03:56.232Z,1018.87
2018-12-12T01:05:05.159Z,1018.82
2018-12-12T01:06:13.829Z,1018.82
2018-12-12T01:07:22.491Z,1018.81
2018-12-12T01:08:31.166Z,1018.81
2018-12-12T01:09:39.834Z,1018.8
2018-12-12T01:10:48.502Z,1018.82
2018-12-12T01:11:57.201Z,1018.81
2018-12-12T01:13:06.115Z,1018.88
2018-12-12T01:14:14.858Z,1018.81
2018-12-12T01:15:23.578Z,1018.84
2018-12-12T01:16:32.255Z,1018.85
2018-12-12T01:17:40.915Z,1018.83
2018-12-12T01:18:49.595Z,1018.84
2018-12-12T01:19:58.254Z,1018.87
2018-12-12T01:21:06.935Z,1018.9
2018-12-12T01:22:15.602Z,1018.89
2018-12-12T01:23:24.276Z,1018.92
2018-12-12T01:24:33.192Z,1018.93
2018-12-12T01:25:41.870Z,1018.93
2018-12-12T01:26:50.790Z,1018.96
2018-12-12T01:27:59.469Z,1018.92
2018-12-12T01:29:08.139Z,1018.95
2018-12-12T01:30:16.791Z,1018.95
2018-12-12T01:31:25.461Z,1018.94
2018-12-12T01:32:34.120Z,1018.95
2018-12-12T01:33:42.795Z,1018.9
2018-12-12T01:34:51.708Z,1018.94
2018-12-12T01:36:00.377Z,1018.9
2018-12-12T01:37:09.038Z,1018.83
2018-12-12T01:38:17.972Z,1018.85
2018-12-12T01:39:26.646Z,1018.86
2018-12-12T01:40:35.315Z,1018.81
2018-12-12T01:41:43.981Z,1018.86
2018-12-12T01:42:52.659Z,1018.92
2018-12-12T01:44:01.326Z,1018.92
2018-12-12T01:45:09.988Z,1018.94
2018-12-12T01:46:18.652Z,1018.92
2018-12-12T01:47:27.315Z,1018.98
2018-12-12T01:48:36.246Z,1018.99
2018-12-12T01:49:44.911Z,1019
2018-12-12T01:50:53.590Z,1019.04
2018-12-12T01:52:02.244Z,1019.06
2018-12-12T01:53:10.913Z,1019.06
2018-12-12T01:54:19.568Z,1019.02
2018-12-12T01:55:28.504Z,1019
2018-12-12T01:56:37.158Z,1018.98
2018-12-12T01:57:45.836Z,1018.95
2018-12-12T01:58:54.505Z,1018.94
2018-12-12T02:00:03.177Z,1019.02
2018-12-12T02:01:11.839Z,1018.99
2018-12-12T02:02:20.508Z,1019.01
2018-12-12T02:03:29.444Z,1019.02
2018-12-12T02:04:38.110Z,1019
2018-12-12T02:05:46.776Z,1019.03
2018-12-12T02:06:55.438Z,1019.01
2018-12-12T02:08:04.356Z,1019.03
2018-12-12T02:09:13.061Z,1019.03
2018-12-12T02:10:21.735Z,1019.06
2018-12-12T02:11:30.393Z,1019.04
2018-12-12T02:12:39.076Z,1019.08
2018-12-12T02:13:47.741Z,1019.06
2018-12-12T02:14:56.410Z,1019.1
2018-12-12T02:16:05.074Z,1019.12
2018-12-12T02:17:13.753Z,1019.13
2018-12-12T02:18:22.414Z,1019.15
2018-12-12T02:19:31.090Z,1019.17
2018-12-12T02:20:39.754Z,1019.19
2018-12-12T02:21:48.428Z,1019.19
2018-12-12T02:22:57.106Z,1019.24
2018-12-12T02:24:05.768Z,1019.25
2018-12-12T02:25:14.443Z,1019.25
2018-12-12T02:26:23.114Z,1019.28
2018-12-12T02:27:31.781Z,1019.29
2018-12-12T02:28:40.440Z,1019.32
2018-12-12T02:29:49.118Z,1019.33
2018-12-12T02:30:57.785Z,1019.31
2018-12-12T02:32:06.713Z,1019.35
2018-12-12T02:33:15.647Z,1019.36
2018-12-12T02:34:24.600Z,1019.38
2018-12-12T02:35:33.271Z,1019.37
2018-12-12T02:36:42.197Z,1019.35
2018-12-12T02:37:50.871Z,1019.34
2018-12-12T02:38:59.552Z,1019.31
2018-12-12T02:40:08.230Z,1019.29
2018-12-12T02:41:16.899Z,1019.24
2018-12-12T02:42:25.571Z,1019.27
2018-12-12T02:43:34.234Z,1019.21
2018-12-12T02:44:43.165Z,1019.24
2018-12-12T02:45:52.086Z,1019.26
2018-12-12T02:47:00.771Z,1019.25
2018-12-12T02:48:09.461Z,1019.28
2018-12-12T02:49:18.384Z,1019.23
2018-12-12T02:50:27.056Z,1019.22
2018-12-12T02:51:36.238Z,1019.25
2018-12-12T02:52:44.917Z,1019.21
2018-12-12T02:53:53.596Z,1019.18
2018-12-12T02:55:02.273Z,1019.23
2018-12-12T02:56:10.959Z,1019.22
2018-12-12T02:57:19.627Z,1019.23
2018-12-12T02:58:28.296Z,1019.25
2018-12-12T02:59:37.481Z,1019.29
2018-12-12T03:00:46.423Z,1019.25
2018-12-12T03:01:55.353Z,1019.28
2018-12-12T03:03:04.022Z,1019.27
2018-12-12T03:04:12.697Z,1019.26
2018-12-12T03:05:21.362Z,1019.3
2018-12-12T03:06:30.363Z,1019.29
2018-12-12T03:07:39.119Z,1019.31
2018-12-12T03:08:48.043Z,1019.33
2018-12-12T03:09:56.717Z,1019.32
2018-12-12T03:11:05.387Z,1019.31
2018-12-12T03:12:14.344Z,1019.34
2018-12-12T03:13:23.006Z,1019.34
2018-12-12T03:14:31.746Z,1019.34
2018-12-12T03:15:40.696Z,1019.35
2018-12-12T03:16:49.917Z,1019.37
2018-12-12T03:17:58.592Z,1019.36
2018-12-12T03:19:07.264Z,1019.43
2018-12-12T03:20:16.463Z,1019.41
2018-12-12T03:21:25.406Z,1019.42
2018-12-12T03:22:34.072Z,1019.45
2018-12-12T03:23:42.735Z,1019.48
2018-12-12T03:24:51.402Z,1019.52
2018-12-12T03:26:00.138Z,1019.52
2018-12-12T03:27:08.828Z,1019.54
2018-12-12T03:28:17.486Z,1019.53
2018-12-12T03:29:26.159Z,1019.56
2018-12-12T03:30:34.972Z,1019.54
2018-12-12T03:31:44.006Z,1019.53
2018-12-12T03:32:52.958Z,1019.51
2018-12-12T03:34:01.903Z,1019.52
2018-12-12T03:35:10.574Z,1019.51
2018-12-12T03:36:19.237Z,1019.51
2018-12-12T03:37:27.904Z,1019.46
2018-12-12T03:38:36.571Z,1019.46
2018-12-12T03:39:45.326Z,1019.49
2018-12-12T03:40:54.000Z,1019.47
2018-12-12T03:42:02.682Z,1019.47
2018-12-12T03:43:11.855Z,1019.44
2018-12-12T03:44:20.527Z,1019.45
2018-12-12T03:45:29.197Z,1019.46
2018-12-12T03:46:37.876Z,1019.45
2018-12-12T03:47:46.796Z,1019.49
2018-12-12T03:48:55.737Z,1019.5
2018-12-12T03:50:04.413Z,1019.49
2018-12-12T03:51:13.108Z,1019.47
2018-12-12T03:52:21.784Z,1019.44
2018-12-12T03:53:30.703Z,1019.45
2018-12-12T03:54:39.373Z,1019.45
2018-12-12T03:55:48.043Z,1019.47
2018-12-12T03:56:56.975Z,1019.47
2018-12-12T03:58:05.908Z,1019.48
2018-12-12T03:59:14.841Z,1019.48
2018-12-12T04:00:23.502Z,1019.48
2018-12-12T04:01:32.177Z,1019.47
2018-12-12T04:02:40.848Z,1019.42
2018-12-12T04:03:49.556Z,1019.41
2018-12-12T04:04:58.468Z,1019.44
2018-12-12T04:06:07.707Z,1019.49
2018-12-12T04:07:16.375Z,1019.46
2018-12-12T04:08:25.304Z,1019.48
2018-12-12T04:09:33.961Z,1019.49
2018-12-12T04:10:42.626Z,1019.5
2018-12-12T04:11:51.305Z,1019.49
2018-12-12T04:12:59.980Z,1019.5
2018-12-12T04:14:08.907Z,1019.51
2018-12-12T04:15:17.826Z,1019.49
2018-12-12T04:16:26.528Z,1019.45
2018-12-12T04:17:35.202Z,1019.46
2018-12-12T04:18:43.881Z,1019.42
2018-12-12T04:19:52.539Z,1019.43
2018-12-12T04:21:01.211Z,1019.44
2018-12-12T04:22:09.872Z,1019.43
2018-12-12T04:23:18.559Z,1019.45
2018-12-12T04:24:27.226Z,1019.47
2018-12-12T04:25:35.897Z,1019.45
2018-12-12T04:26:44.573Z,1019.47
2018-12-12T04:27:53.243Z,1019.46
2018-12-12T04:29:01.946Z,1019.5
2018-12-12T04:30:10.613Z,1019.49
2018-12-12T04:31:19.292Z,1019.48
2018-12-12T04:32:28.235Z,1019.48
2018-12-12T04:33:36.913Z,1019.51
2018-12-12T04:34:45.672Z,1019.52
2018-12-12T04:35:54.354Z,1019.54
2018-12-12T04:37:03.022Z,1019.54
2018-12-12T04:38:11.708Z,1019.55
2018-12-12T04:39:20.420Z,1019.53
2018-12-12T04:40:29.111Z,1019.56
2018-12-12T04:41:37.772Z,1019.57
2018-12-12T04:42:46.456Z,1019.56
2018-12-12T04:43:55.155Z,1019.58
2018-12-12T04:45:03.833Z,1019.55
2018-12-12T04:46:12.494Z,1019.58
2018-12-12T04:47:21.163Z,1019.54
2018-12-12T04:48:29.847Z,1019.57
2018-12-12T04:49:38.779Z,1019.55
2018-12-12T04:50:48.808Z,1019.6
2018-12-12T04:51:57.477Z,1019.58
2018-12-12T04:53:06.416Z,1019.58
2018-12-12T04:54:15.079Z,1019.57
2018-12-12T04:55:23.761Z,1019.6
2018-12-12T04:56:32.417Z,1019.55
2018-12-12T04:57:41.096Z,1019.54
2018-12-12T04:58:50.026Z,1019.54
2018-12-12T04:59:58.704Z,1019.54
2018-12-12T05:01:07.366Z,1019.54
2018-12-12T05:02:16.305Z,1019.54
2018-12-12T05:03:25.489Z,1019.48
2018-12-12T05:04:34.417Z,1019.53
2018-12-12T05:05:43.096Z,1019.48
2018-12-12T05:06:52.023Z,1019.52
2018-12-12T05:08:00.692Z,1019.49
2018-12-12T05:09:09.435Z,1019.52
2018-12-12T05:10:18.116Z,1019.48
2018-12-12T05:11:26.794Z,1019.52
2018-12-12T05:12:35.490Z,1019.52
2018-12-12T05:13:44.176Z,1019.53
2018-12-12T05:14:52.848Z,1019.52
2018-12-12T05:16:01.517Z,1019.53
2018-12-12T05:17:10.436Z,1019.57
2018-12-12T05:18:19.107Z,1019.59
2018-12-12T05:19:27.765Z,1019.59
2018-12-12T05:20:36.452Z,1019.66
2018-12-12T05:21:45.370Z,1019.68
2018-12-12T05:22:54.042Z,1019.71
2018-12-12T05:24:02.711Z,1019.69
2018-12-12T05:25:11.381Z,1019.69
2018-12-12T05:26:20.064Z,1019.68
2018-12-12T05:27:28.994Z,1019.7
2018-12-12T05:28:37.674Z,1019.7
2018-12-12T05:29:46.587Z,1019.73
2018-12-12T05:30:55.261Z,1019.73
2018-12-12T05:32:03.934Z,1019.74
2018-12-12T05:33:12.607Z,1019.77
2018-12-12T05:34:21.317Z,1019.77
2018-12-12T05:35:29.999Z,1019.77
2018-12-12T05:36:38.715Z,1019.81
2018-12-12T05:37:50.994Z,1019.78
2018-12-12T05:39:01.142Z,1019.8
2018-12-12T05:40:09.807Z,1019.78
2018-12-12T05:41:18.729Z,1019.71
2018-12-12T05:42:27.398Z,1019.78
2018-12-12T05:43:36.061Z,1019.77
2018-12-12T05:44:44.978Z,1019.76
2018-12-12T05:45:53.659Z,1019.79
2018-12-12T05:47:02.323Z,1019.74
2018-12-12T05:48:10.993Z,1019.7
2018-12-12T05:49:19.665Z,1019.75
2018-12-12T05:50:28.338Z,1019.75
2018-12-12T05:51:37.000Z,1019.77
2018-12-12T05:52:45.666Z,1019.77
2018-12-12T05:53:54.350Z,1019.79
2018-12-12T05:55:03.016Z,1019.79
2018-12-12T05:56:14.190Z,1019.82
2018-12-12T05:57:23.020Z,1019.81
2018-12-12T05:58:31.951Z,1019.82
2018-12-12T05:59:40.634Z,1019.83
2018-12-12T06:00:49.296Z,1019.87
2018-12-12T06:01:58.882Z,1019.88
2018-12-12T06:03:07.549Z,1019.88
2018-12-12T06:04:16.214Z,1019.91
2018-12-12T06:05:24.897Z,1019.9
2018-12-12T06:06:33.558Z,1019.93
2018-12-12T06:07:43.325Z,1019.92
2018-12-12T06:08:52.074Z,1019.96
2018-12-12T06:10:00.766Z,1019.97
2018-12-12T06:11:09.442Z,1019.98
2018-12-12T06:12:18.124Z,1020.03
2018-12-12T06:13:26.819Z,1020.01
2018-12-12T06:14:35.496Z,1020.01
2018-12-12T06:15:44.168Z,1020
2018-12-12T06:16:52.840Z,1020.01
2018-12-12T06:18:01.500Z,1020.03
2018-12-12T06:19:11.187Z,1020.03
2018-12-12T06:20:19.937Z,1020.05
2018-12-12T06:21:28.603Z,1020.02
2018-12-12T06:22:37.725Z,1019.98
2018-12-12T06:23:46.945Z,1019.98
2018-12-12T06:24:55.618Z,1019.98
2018-12-12T06:26:04.560Z,1019.99
2018-12-12T06:27:13.246Z,1019.96
2018-12-12T06:28:22.156Z,1019.97
2018-12-12T06:29:31.289Z,1019.98
2018-12-12T06:30:39.943Z,1019.96
2018-12-12T06:31:48.618Z,1019.98
2018-12-12T06:32:57.281Z,1019.99
2018-12-12T06:34:05.950Z,1020.02
2018-12-12T06:35:14.875Z,1019.98
2018-12-12T06:36:23.578Z,1019.99
2018-12-12T06:37:32.246Z,1019.98
2018-12-12T06:38:40.914Z,1019.99
2018-12-12T06:39:49.578Z,1019.99
2018-12-12T06:40:58.240Z,1020
2018-12-12T06:42:06.928Z,1020.02
2018-12-12T06:43:15.599Z,1020.07
2018-12-12T06:44:24.273Z,1020.09
2018-12-12T06:45:32.933Z,1020.06
2018-12-12T06:46:41.610Z,1020.08
2018-12-12T06:47:50.341Z,1020.08
2018-12-12T06:48:59.017Z,1020.13
2018-12-12T06:50:07.675Z,1020.12
2018-12-12T06:51:16.359Z,1020.1
2018-12-12T06:52:25.024Z,1020.11
2018-12-12T06:53:33.692Z,1020.06
2018-12-12T06:54:42.350Z,1020.11
2018-12-12T06:55:51.028Z,1020.14
2018-12-12T06:56:59.695Z,1020.14
2018-12-12T06:58:08.363Z,1020.17
2018-12-12T06:59:17.031Z,1020.17
2018-12-12T07:00:25.694Z,1020.18
2018-12-12T07:01:34.362Z,1020.15
2018-12-12T07:02:43.040Z,1020.16
2018-12-12T07:03:51.713Z,1020.17
2018-12-12T07:05:00.397Z,1020.19
2018-12-12T07:06:09.064Z,1020.21
2018-12-12T07:07:17.745Z,1020.18
2018-12-12T07:08:26.404Z,1020.22
2018-12-12T07:09:35.467Z,1020.21
2018-12-12T07:10:44.130Z,1020.21
2018-12-12T07:11:52.798Z,1020.2
2018-12-12T07:13:01.461Z,1020.2
2018-12-12T07:14:10.128Z,1020.23
2018-12-12T07:15:19.066Z,1020.23
2018-12-12T07:16:27.735Z,1020.25
2018-12-12T07:17:36.411Z,1020.27
2018-12-12T07:18:45.068Z,1020.27
2018-12-12T07:19:53.741Z,1020.31
2018-12-12T07:21:02.404Z,1020.29
2018-12-12T07:22:11.340Z,1020.3
2018-12-12T07:23:20.253Z,1020.3
2018-12-12T07:24:28.933Z,1020.28
2018-12-12T07:25:37.596Z,1020.27
2018-12-12T07:26:46.267Z,1020.31
2018-12-12T07:27:54.929Z,1020.29
2018-12-12T07:29:03.601Z,1020.31
2018-12-12T07:30:12.276Z,1020.3
2018-12-12T07:31:20.958Z,1020.3
2018-12-12T07:32:29.684Z,1020.28
2018-12-12T07:33:38.359Z,1020.33
2018-12-12T07:34:47.025Z,1020.32
2018-12-12T07:35:59.399Z,1020.31
2018-12-12T07:37:08.534Z,1020.34
2018-12-12T07:38:17.198Z,1020.34
2018-12-12T07:39:26.385Z,1020.36
2018-12-12T07:40:35.040Z,1020.37
2018-12-12T07:41:43.724Z,1020.35
2018-12-12T07:42:52.391Z,1020.39
2018-12-12T07:44:01.066Z,1020.42
2018-12-12T07:45:09.719Z,1020.44
2018-12-12T07:46:19.260Z,1020.43
2018-12-12T07:47:27.984Z,1020.45
2018-12-12T07:48:36.919Z,1020.45
2018-12-12T07:49:45.577Z,1020.49
2018-12-12T07:50:56.145Z,1020.5
2018-12-12T07:52:04.818Z,1020.51
2018-12-12T07:53:14.606Z,1020.54
2018-12-12T07:54:23.284Z,1020.54
2018-12-12T07:55:31.947Z,1020.57
2018-12-12T07:56:40.618Z,1020.53
2018-12-12T07:57:49.282Z,1020.56
2018-12-12T07:58:57.959Z,1020.57
2018-12-12T08:00:06.872Z,1020.57
2018-12-12T08:01:15.561Z,1020.55
2018-12-12T08:02:24.230Z,1020.56
2018-12-12T08:03:32.908Z,1020.56
2018-12-12T08:04:41.572Z,1020.59
2018-12-12T08:05:50.236Z,1020.57
2018-12-12T08:06:58.897Z,1020.57
2018-12-12T08:08:07.573Z,1020.59
2018-12-12T08:09:16.248Z,1020.63
2018-12-12T08:10:24.924Z,1020.65
2018-12-12T08:11:33.593Z,1020.64
2018-12-12T08:12:42.297Z,1020.63
2018-12-12T08:13:50.964Z,1020.66
2018-12-12T08:14:59.630Z,1020.67
2018-12-12T08:16:08.559Z,1020.66
2018-12-12T08:17:17.227Z,1020.74
2018-12-12T08:18:25.909Z,1020.73
2018-12-12T08:19:34.582Z,1020.72
2018-12-12T08:20:43.250Z,1020.74
2018-12-12T08:21:51.910Z,1020.73
2018-12-12T08:23:00.587Z,1020.77
2018-12-12T08:24:09.267Z,1020.72
2018-12-12T08:25:17.936Z,1020.76
2018-12-12T08:26:26.612Z,1020.73
2018-12-12T08:27:35.282Z,1020.73
2018-12-12T08:28:43.950Z,1020.73
2018-12-12T08:29:52.617Z,1020.73
2018-12-12T08:31:01.383Z,1020.73
2018-12-12T08:32:10.123Z,1020.69
2018-12-12T08:33:18.797Z,1020.73
2018-12-12T08:34:27.729Z,1020.71
2018-12-12T08:35:36.428Z,1020.75
2018-12-12T08:36:45.185Z,1020.71
2018-12-12T08:37:53.919Z,1020.77
2018-12-12T08:39:02.595Z,1020.79
2018-12-12T08:40:11.275Z,1020.79
2018-12-12T08:41:19.945Z,1020.79
2018-12-12T08:42:28.619Z,1020.82
2018-12-12T08:43:37.285Z,1020.82
2018-12-12T08:44:45.958Z,1020.86
2018-12-12T08:45:54.626Z,1020.82
2018-12-12T08:47:03.290Z,1020.8
2018-12-12T08:48:11.953Z,1020.81
2018-12-12T08:49:20.619Z,1020.8
2018-12-12T08:50:29.549Z,1020.79
2018-12-12T08:51:38.219Z,1020.83
2018-12-12T08:52:46.887Z,1020.82
2018-12-12T08:53:56.698Z,1020.82
2018-12-12T08:55:05.624Z,1020.81
2018-12-12T08:56:20.073Z,1020.83
2018-12-12T08:57:29.049Z,1020.84
2018-12-12T08:58:37.711Z,1020.84
2018-12-12T08:59:46.652Z,1020.9
2018-12-12T09:00:55.402Z,1020.87
2018-12-12T09:02:05.458Z,1020.94
2018-12-12T09:03:17.484Z,1020.88
2018-12-12T09:04:26.455Z,1020.93
2018-12-12T09:05:35.125Z,1020.93
2018-12-12T09:06:43.801Z,1020.94
2018-12-12T09:07:52.477Z,1020.96
2018-12-12T09:09:01.140Z,1020.94
2018-12-12T09:10:09.831Z,1020.97
2018-12-12T09:11:18.572Z,1020.95
2018-12-12T09:12:27.539Z,1020.96
2018-12-12T09:13:36.197Z,1020.92
2018-12-12T09:14:44.888Z,1020.93
2018-12-12T09:15:53.577Z,1020.97
2018-12-12T09:17:02.251Z,1021.02
2018-12-12T09:18:16.286Z,1021.02
2018-12-12T09:19:24.956Z,1021.05
2018-12-12T09:20:33.650Z,1021.03
2018-12-12T09:21:42.326Z,1021.03
2018-12-12T09:22:50.998Z,1021.04
2018-12-12T09:23:59.668Z,1021.02
2018-12-12T09:25:08.872Z,1021.02
2018-12-12T09:26:17.541Z,1021.08
2018-12-12T09:27:26.218Z,1021.07
2018-12-12T09:28:34.878Z,1021.07
2018-12-12T09:29:43.554Z,1021.05
2018-12-12T09:30:52.215Z,1021.09
2018-12-12T09:32:00.896Z,1021.11
2018-12-12T09:33:09.585Z,1021.16
2018-12-12T09:34:24.852Z,1021.17
2018-12-12T09:35:33.508Z,1021.21
2018-12-12T09:36:42.189Z,1021.2
2018-12-12T09:37:50.886Z,1021.23
2018-12-12T09:38:59.561Z,1021.18
2018-12-12T09:40:08.234Z,1021.2
2018-12-12T09:41:17.213Z,1021.23
2018-12-12T09:42:26.020Z,1021.25
2018-12-12T09:43:34.695Z,1021.22
2018-12-12T09:44:43.367Z,1021.22
2018-12-12T09:45:52.028Z,1021.21
2018-12-12T09:47:00.702Z,1021.16
2018-12-12T09:48:09.367Z,1021.19
2018-12-12T09:49:24.141Z,1021.17
2018-12-12T09:50:32.846Z,1021.2
2018-12-12T09:51:41.557Z,1021.16
2018-12-12T09:52:50.239Z,1021.18
2018-12-12T09:53:58.914Z,1021.17
2018-12-12T09:55:07.899Z,1021.14
2018-12-12T09:56:16.599Z,1021.17
2018-12-12T09:57:25.483Z,1021.16
2018-12-12T09:58:34.160Z,1021.14
2018-12-12T09:59:42.851Z,1021.15
2018-12-12T10:00:51.522Z,1021.17
2018-12-12T10:02:00.192Z,1021.13
2018-12-12T10:03:08.867Z,1021.11
2018-12-12T10:04:17.546Z,1021.13
2018-12-12T10:05:26.213Z,1021.15
2018-12-12T10:06:35.164Z,1021.15
2018-12-12T10:07:43.854Z,1021.18
2018-12-12T10:08:52.530Z,1021.21
2018-12-12T10:10:02.212Z,1021.21
2018-12-12T10:11:10.882Z,1021.16
2018-12-12T10:12:19.546Z,1021.2
2018-12-12T10:13:28.228Z,1021.19
2018-12-12T10:14:36.898Z,1021.16
2018-12-12T10:15:45.569Z,1021.19
2018-12-12T10:16:54.291Z,1021.17
2018-12-12T10:18:03.050Z,1021.2
2018-12-12T10:19:11.725Z,1021.24
2018-12-12T10:20:20.400Z,1021.22
2018-12-12T10:21:29.123Z,1021.27
2018-12-12T10:22:38.045Z,1021.24
2018-12-12T10:23:47.051Z,1021.23
2018-12-12T10:24:55.993Z,1021.23
2018-12-12T10:26:04.982Z,1021.22
2018-12-12T10:27:13.653Z,1021.2
2018-12-12T10:28:22.321Z,1021.17
2018-12-12T10:29:30.994Z,1021.14
2018-12-12T10:30:40.720Z,1021.16
2018-12-12T10:31:49.422Z,1021.16
2018-12-12T10:32:58.352Z,1021.16
2018-12-12T10:34:07.025Z,1021.17
2018-12-12T10:35:15.705Z,1021.14
2018-12-12T10:36:24.377Z,1021.11
2018-12-12T10:37:33.047Z,1021.11
2018-12-12T10:38:41.982Z,1021.1
2018-12-12T10:41:29.083Z,1021.06
2018-12-12T10:42:37.768Z,1021.1
2018-12-12T10:43:46.497Z,1021.11
2018-12-12T10:44:55.187Z,1021.09
2018-12-12T10:46:03.875Z,1021.07
2018-12-12T10:47:12.550Z,1020.99
2018-12-12T10:48:21.278Z,1021.02
2018-12-12T10:49:30.031Z,1021.01
2018-12-12T10:50:38.985Z,1020.97
2018-12-12T10:51:47.654Z,1020.98
2018-12-12T10:52:56.328Z,1020.98
2018-12-12T10:54:05.259Z,1020.93
2018-12-12T10:55:13.931Z,1020.98
2018-12-12T10:56:22.614Z,1020.99
2018-12-12T10:57:31.309Z,1021.01
2018-12-12T10:58:39.977Z,1021
2018-12-12T10:59:49.181Z,1021.03
2018-12-12T11:00:57.850Z,1021.01
2018-12-12T11:02:06.530Z,1020.99
2018-12-12T11:03:15.205Z,1021.01
2018-12-12T11:04:23.885Z,1020.97
2018-12-12T11:05:32.563Z,1021.01
2018-12-12T11:06:41.254Z,1020.97
2018-12-12T11:07:50.005Z,1021
2018-12-12T11:08:58.680Z,1020.95
2018-12-12T11:10:07.460Z,1020.96
2018-12-12T11:11:16.189Z,1020.95
2018-12-12T11:12:24.874Z,1020.95
2018-12-12T11:13:33.550Z,1020.93
2018-12-12T11:14:42.223Z,1020.96
2018-12-12T11:15:50.895Z,1020.92
2018-12-12T11:16:59.557Z,1020.94
2018-12-12T11:18:08.243Z,1020.96
2018-12-12T11:19:17.192Z,1020.94
2018-12-12T11:20:26.110Z,1020.97
2018-12-12T11:21:34.779Z,1020.96
2018-12-12T11:22:43.441Z,1020.95
2018-12-12T11:23:52.124Z,1020.97
2018-12-12T11:25:00.787Z,1020.97
2018-12-12T11:26:09.458Z,1020.96
2018-12-12T11:27:18.130Z,1020.97
2018-12-12T11:28:27.058Z,1020.95
2018-12-12T11:29:35.734Z,1020.93
2018-12-12T11:30:44.409Z,1020.94
2018-12-12T11:31:53.087Z,1020.95
2018-12-12T11:33:01.759Z,1020.92
2018-12-12T11:34:10.451Z,1020.93
2018-12-12T11:35:19.120Z,1020.9
2018-12-12T11:36:27.790Z,1020.93
2018-12-12T11:37:36.728Z,1020.9
2018-12-12T11:38:45.403Z,1020.89
2018-12-12T11:39:54.332Z,1020.9
2018-12-12T11:41:03.004Z,1020.91
2018-12-12T11:42:11.674Z,1020.89
2018-12-12T11:43:20.344Z,1020.86
2018-12-12T11:44:29.010Z,1020.88
2018-12-12T11:45:37.688Z,1020.9
2018-12-12T11:46:46.362Z,1020.88
2018-12-12T11:47:55.279Z,1020.89
2018-12-12T11:49:03.949Z,1020.88
2018-12-12T11:50:12.621Z,1020.89
2018-12-12T11:51:21.297Z,1020.86
2018-12-12T11:52:29.957Z,1020.89
2018-12-12T11:53:38.634Z,1020.91
2018-12-12T11:54:47.307Z,1020.87
2018-12-12T11:55:55.983Z,1020.78
2018-12-12T11:57:04.652Z,1020.75
2018-12-12T11:58:13.325Z,1020.76
2018-12-12T11:59:21.990Z,1020.74
2018-12-12T12:00:30.671Z,1020.74
2018-12-12T12:01:39.660Z,1020.72
2018-12-12T12:02:48.367Z,1020.73
2018-12-12T12:03:57.167Z,1020.71
2018-12-12T12:05:05.834Z,1020.69
2018-12-12T12:06:14.722Z,1020.67
2018-12-12T12:07:23.389Z,1020.67
2018-12-12T12:08:32.063Z,1020.67
2018-12-12T12:09:40.790Z,1020.63
2018-12-12T12:10:50.447Z,1020.66
2018-12-12T12:11:59.119Z,1020.63
2018-12-12T12:13:07.790Z,1020.68
2018-12-12T12:14:16.974Z,1020.66
2018-12-12T12:15:25.663Z,1020.68
2018-12-12T12:16:34.812Z,1020.67
2018-12-12T12:17:43.792Z,1020.63
2018-12-12T12:18:52.459Z,1020.63
2018-12-12T12:20:02.460Z,1020.65
2018-12-12T12:21:11.135Z,1020.67
2018-12-12T12:22:19.819Z,1020.67
2018-12-12T12:23:28.505Z,1020.63
2018-12-12T12:24:37.172Z,1020.63
2018-12-12T12:25:45.851Z,1020.59
2018-12-12T12:26:54.516Z,1020.6
2018-12-12T12:28:03.191Z,1020.61
2018-12-12T12:29:11.919Z,1020.64
2018-12-12T12:30:20.664Z,1020.57
2018-12-12T12:31:29.486Z,1020.59
2018-12-12T12:32:38.421Z,1020.55
2018-12-12T12:33:47.084Z,1020.56
2018-12-12T12:34:55.758Z,1020.56
2018-12-12T12:36:04.645Z,1020.51
2018-12-12T12:37:13.394Z,1020.48
2018-12-12T12:38:22.064Z,1020.5
2018-12-12T12:39:30.731Z,1020.51
2018-12-12T12:40:39.671Z,1020.5
2018-12-12T12:41:48.483Z,1020.5
2018-12-12T12:42:57.336Z,1020.46
2018-12-12T12:44:06.005Z,1020.49
2018-12-12T12:45:14.681Z,1020.5
2018-12-12T12:46:23.377Z,1020.44
2018-12-12T12:47:32.052Z,1020.43
2018-12-12T12:48:40.780Z,1020.43
2018-12-12T12:49:49.451Z,1020.41
2018-12-12T12:50:58.135Z,1020.39
2018-12-12T12:52:06.894Z,1020.38
2018-12-12T12:53:15.563Z,1020.4
2018-12-12T12:54:24.233Z,1020.42
2018-12-12T12:55:32.900Z,1020.43
2018-12-12T12:56:41.566Z,1020.42
2018-12-12T12:57:50.237Z,1020.35
2018-12-12T12:58:58.910Z,1020.38
2018-12-12T13:00:07.584Z,1020.34
2018-12-12T13:01:16.247Z,1020.31
2018-12-12T13:02:24.926Z,1020.35
2018-12-12T13:03:33.596Z,1020.34
2018-12-12T13:04:42.540Z,1020.32
2018-12-12T13:05:51.450Z,1020.31
2018-12-12T13:07:00.183Z,1020.33
2018-12-12T13:08:08.852Z,1020.32
2018-12-12T13:09:17.543Z,1020.3
2018-12-12T13:10:26.201Z,1020.29
2018-12-12T13:11:34.872Z,1020.28
2018-12-12T13:12:43.544Z,1020.27
2018-12-12T13:13:52.219Z,1020.28
2018-12-12T13:15:00.898Z,1020.23
2018-12-12T13:16:09.559Z,1020.24
2018-12-12T13:17:18.227Z,1020.19
2018-12-12T13:18:26.893Z,1020.19
2018-12-12T13:19:35.580Z,1020.25
2018-12-12T13:20:44.252Z,1020.26
2018-12-12T13:21:52.934Z,1020.24
2018-12-12T13:23:01.597Z,1020.24
2018-12-12T13:24:10.275Z,1020.21
2018-12-12T13:25:18.940Z,1020.21
2018-12-12T13:26:27.616Z,1020.21
2018-12-12T13:27:36.278Z,1020.19
2018-12-12T13:28:44.958Z,1020.21
2018-12-12T13:29:53.625Z,1020.2
2018-12-12T13:31:02.304Z,1020.19
2018-12-12T13:32:11.219Z,1020.17
2018-12-12T13:33:21.116Z,1020.18
2018-12-12T13:34:30.049Z,1020.15
2018-12-12T13:35:38.721Z,1020.12
2018-12-12T13:36:47.413Z,1020.15
2018-12-12T13:37:56.075Z,1020.18
2018-12-12T13:39:04.749Z,1020.13
2018-12-12T13:40:13.413Z,1020.14
2018-12-12T13:41:22.097Z,1020.13
2018-12-12T13:42:30.761Z,1020.11
2018-12-12T13:43:39.437Z,1020.12
2018-12-12T13:44:48.114Z,1020.12
2018-12-12T13:45:56.794Z,1020.09
2018-12-12T13:47:05.463Z,1020.09
2018-12-12T13:48:19.666Z,1020.09
2018-12-12T13:49:28.329Z,1020.06
2018-12-12T13:50:37.012Z,1020.02
2018-12-12T13:51:45.685Z,1019.98
2018-12-12T13:52:54.380Z,1019.98
2018-12-12T13:54:03.063Z,1020.01
2018-12-12T13:55:11.732Z,1019.98
2018-12-12T13:56:20.406Z,1019.99
2018-12-12T13:57:29.076Z,1019.98